createdAt,value
2019-05-16T00:00:35.371Z,97754.21
2019-05-16T00:10:38.333Z,97744.44
2019-05-16T00:20:39.351Z,97727.45
2019-05-16T00:30:40.379Z,97714.19
2019-05-16T00:40:42.866Z,97696.80
2019-05-16T00:50:43.976Z,97683.23
2019-05-16T01:00:49.374Z,97676.64
2019-05-16T01:10:51.574Z,97666.81
2019-05-16T01:20:52.428Z,97655.30
2019-05-16T01:30:53.453Z,97641.26
2019-05-16T01:40:54.457Z,97626.41
2019-05-16T01:50:55.516Z,97626.81
2019-05-16T02:01:05.959Z,97619.78
2019-05-16T02:10:59.576Z,97598.00
2019-05-16T02:21:01.263Z,97597.12
2019-05-16T02:31:02.653Z,97575.75
2019-05-16T02:41:03.863Z,97572.89
2019-05-16T02:51:04.916Z,97562.34
2019-05-16T03:01:06.530Z,97553.64
2019-05-16T03:11:07.841Z,97553.33
2019-05-16T03:21:11.965Z,97539.00
2019-05-16T03:31:15.018Z,97525.66
2019-05-16T03:41:17.140Z,97520.98
2019-05-16T03:51:21.308Z,97509.85
2019-05-16T04:01:21.470Z,97505.59
2019-05-16T04:11:23.534Z,97498.02
2019-05-16T04:21:24.954Z,97499.10
2019-05-16T04:31:25.963Z,97486.42
2019-05-16T04:41:27.070Z,97478.36
2019-05-16T04:51:30.678Z,97466.61
2019-05-16T05:01:31.005Z,97468.99
2019-05-16T05:11:32.087Z,97473.92
2019-05-16T05:21:33.106Z,97461.20
2019-05-16T05:31:35.501Z,97463.69
2019-05-16T05:41:36.737Z,97451.27
2019-05-16T05:51:40.598Z,97453.52
2019-05-16T06:01:41.846Z,97447.47
2019-05-16T06:11:42.862Z,97449.08
2019-05-16T06:21:45.367Z,97443.82
2019-05-16T06:31:46.554Z,97441.63
2019-05-16T06:41:47.552Z,97444.54
2019-05-16T06:51:51.544Z,97436.98
2019-05-16T07:01:52.590Z,97427.88
2019-05-16T07:11:53.829Z,97408.91
2019-05-16T07:21:54.971Z,97397.70
2019-05-16T07:31:56.094Z,97394.62
2019-05-16T07:41:59.819Z,97405.22
2019-05-16T07:52:00.720Z,97397.55
2019-05-16T08:02:01.864Z,97381.33
2019-05-16T08:12:05.913Z,97372.80
2019-05-16T08:22:06.176Z,97369.45
2019-05-16T08:32:11.242Z,97355.09
2019-05-16T08:50:05.527Z,97356.66
2019-05-16T08:52:13.343Z,97357.18
2019-05-16T09:02:14.446Z,97344.05
2019-05-16T09:12:17.202Z,97333.09
2019-05-16T09:22:18.433Z,97333.09
2019-05-16T09:32:21.751Z,97326.44
2019-05-16T09:42:22.466Z,97309.38
2019-05-16T09:52:23.612Z,97303.42
2019-05-16T10:02:27.187Z,97304.02
2019-05-16T10:12:27.743Z,97290.38
2019-05-16T10:22:28.889Z,97284.45
2019-05-16T10:32:29.903Z,97281.11
2019-05-16T10:42:31.038Z,97278.58
2019-05-16T10:52:32.048Z,97271.30
2019-05-16T11:02:33.169Z,97257.29
2019-05-16T11:12:47.627Z,97255.15
2019-05-16T11:22:37.428Z,97251.77
2019-05-16T11:32:38.601Z,97254.92
2019-05-16T11:42:39.832Z,97251.81
2019-05-16T11:52:41.322Z,97234.23
2019-05-16T12:02:43.101Z,97231.70
2019-05-16T12:12:44.312Z,97206.05
2019-05-16T12:22:45.470Z,97198.86
2019-05-16T12:32:47.019Z,97185.20
2019-05-16T12:42:48.308Z,97186.50
2019-05-16T12:52:49.310Z,97187.56
2019-05-16T13:02:50.405Z,97180.45
2019-05-16T13:12:51.547Z,97174.32
2019-05-16T13:22:52.687Z,97175.11
2019-05-16T13:32:53.711Z,97176.02
2019-05-16T13:42:57.187Z,97164.11
2019-05-16T13:52:58.648Z,97151.00
2019-05-16T14:02:59.973Z,97139.41
2019-05-16T14:13:01.797Z,97137.83
2019-05-16T14:23:03.918Z,97137.56
2019-05-16T14:33:13.179Z,97139.97
2019-05-16T14:43:08.869Z,97133.70
2019-05-16T14:53:10.084Z,97136.52
2019-05-16T15:03:11.085Z,97138.13
2019-05-16T15:13:12.224Z,97140.27
2019-05-16T15:23:13.484Z,97134.87
2019-05-16T15:33:16.830Z,97148.22
2019-05-16T15:43:18.851Z,97139.01
2019-05-16T15:53:20.396Z,97143.25
2019-05-16T16:03:22.191Z,97138.56
2019-05-16T16:13:23.229Z,97134.89
2019-05-16T16:23:27.042Z,97125.31
2019-05-16T16:33:30.056Z,97117.97
2019-05-16T16:43:31.468Z,97113.56
2019-05-16T16:53:32.501Z,97112.16
2019-05-16T17:03:33.656Z,97117.09
2019-05-16T17:13:36.575Z,97119.98
2019-05-16T17:23:37.780Z,97119.40
2019-05-16T17:33:38.831Z,97125.03
2019-05-16T17:43:39.840Z,97118.92
2019-05-16T17:53:40.967Z,97120.30
2019-05-16T18:03:42.076Z,97130.30
2019-05-16T18:13:43.666Z,97126.41
2019-05-16T18:23:47.077Z,97136.22
2019-05-16T18:33:47.651Z,97140.49
2019-05-16T18:43:48.642Z,97138.41
2019-05-16T18:53:49.757Z,97134.31
2019-05-16T19:03:50.883Z,97141.79
2019-05-16T19:13:51.912Z,97132.34
2019-05-16T19:23:52.939Z,97127.87
2019-05-16T19:33:56.395Z,97136.91
2019-05-16T19:43:57.256Z,97133.73
2019-05-16T19:53:58.379Z,97128.19
2019-05-16T20:03:59.458Z,97122.38
2019-05-16T20:14:00.472Z,97128.72
2019-05-16T20:24:01.895Z,97132.94
2019-05-16T20:34:03.252Z,97121.85
2019-05-16T20:44:06.576Z,97116.30
2019-05-16T20:54:07.568Z,97112.08
2019-05-16T21:04:08.777Z,97102.84
2019-05-16T21:14:10.010Z,97103.84
2019-05-16T21:24:11.043Z,97102.25
2019-05-16T21:34:12.066Z,97091.48
2019-05-16T21:44:13.175Z,97090.95
2019-05-16T21:54:14.515Z,97080.21
2019-05-16T22:04:15.618Z,97060.62
2019-05-16T22:14:20.536Z,97061.26
2019-05-16T22:24:21.713Z,97052.82
2019-05-16T22:34:22.723Z,97050.80
2019-05-16T22:44:23.719Z,97048.91
2019-05-16T22:54:26.290Z,97036.56
2019-05-16T23:04:47.691Z,97036.53
2019-05-16T23:14:48.769Z,97012.72
2019-05-16T23:24:49.827Z,97012.77
2019-05-16T23:34:50.823Z,97006.96
2019-05-16T23:44:51.812Z,96999.02
2019-05-16T23:54:52.848Z,96980.00
